Time;durP1;ratioP1;P1;durP2;ratioP2;P2;SDS_P1;SDS_P2;PMS_P1;PMS_P2;Temp;Humidity;BMP_temperature;BMP_pressure;BME280_temperature;BME280_humidity;BME280_pressure;Samples;Min_cycle;Max_cycle;Signal;HPM_P1;HPM_P2
2022/09/26 00:00:16;;;;;;;23.73;18.92;;;18.10;99.90;;;;;;4592006;19;20014;-40
2022/09/26 00:02:07;;;;;;;22.05;18.08;;;18.10;99.90;;;;;;4591717;19;20006;-40
2022/09/26 00:03:38;;;;;;;28.30;21.20;;;18.10;99.90;;;;;;4591999;19;20015;-41
2022/09/26 00:05:10;;;;;;;28.80;22.60;;;18.10;99.90;;;;;;4590882;19;20026;-39
2022/09/26 00:06:42;;;;;;;27.10;20.13;;;18.10;99.90;;;;;;4591512;19;20019;-40
2022/09/26 00:08:13;;;;;;;29.58;22.60;;;18.10;99.90;;;;;;4591564;19;20015;-39
2022/09/26 00:09:44;;;;;;;28.92;24.38;;;18.10;99.90;;;;;;4591650;19;20009;-40
2022/09/26 00:11:21;;;;;;;31.15;24.08;;;18.10;99.90;;;;;;4592217;19;20009;-37
2022/09/26 00:12:54;;;;;;;39.47;29.08;;;18.10;99.90;;;;;;4591956;19;20018;-40
2022/09/26 00:14:26;;;;;;;44.92;32.28;;;18.10;99.90;;;;;;4591438;19;20472;-42
2022/09/26 00:15:58;;;;;;;43.92;30.60;;;18.10;99.90;;;;;;4590588;19;20018;-39
2022/09/26 00:17:29;;;;;;;42.03;30.52;;;18.10;99.90;;;;;;4592055;19;20015;-40
2022/09/26 00:19:01;;;;;;;34.13;26.23;;;18.10;99.90;;;;;;4589228;19;20020;-40
2022/09/26 00:20:32;;;;;;;32.58;25.00;;;18.10;99.90;;;;;;4590808;19;20015;-43
2022/09/26 00:22:03;;;;;;;38.30;29.23;;;18.10;99.90;;;;;;4591982;19;20074;-42
2022/09/26 00:23:34;;;;;;;46.60;32.13;;;18.10;99.90;;;;;;4591760;19;20018;-40
2022/09/26 00:25:06;;;;;;;40.60;28.85;;;18.10;99.90;;;;;;4591512;19;20066;-41
2022/09/26 00:26:37;;;;;;;;;;;18.10;99.90;;;;;;4589588;19;20006;-38
2022/09/26 00:28:08;;;;;;;19.33;15.85;;;18.10;99.90;;;;;;4590485;19;20302;-36
2022/09/26 00:29:39;;;;;;;15.73;13.23;;;18.10;99.90;;;;;;4591586;19;20018;-38
2022/09/26 00:31:12;;;;;;;13.35;11.98;;;18.10;99.90;;;;;;4590968;19;20476;-38
2022/09/26 00:32:43;;;;;;;13.93;12.15;;;18.10;99.90;;;;;;4591253;19;20010;-39
2022/09/26 00:34:16;;;;;;;17.23;14.43;;;18.10;99.90;;;;;;4591396;19;20014;-40
2022/09/26 00:35:51;;;;;;;19.30;16.23;;;18.10;99.90;;;;;;4590864;19;20033;-41
2022/09/26 00:37:22;;;;;;;17.40;15.35;;;18.10;99.90;;;;;;4591170;19;20501;-39
2022/09/26 00:38:53;;;;;;;18.70;15.43;;;18.10;99.90;;;;;;4591137;19;20021;-39
2022/09/26 00:40:26;;;;;;;19.67;15.80;;;18.10;99.90;;;;;;4590044;19;20023;-38
2022/09/26 00:41:57;;;;;;;16.00;13.65;;;18.10;99.90;;;;;;4591272;19;20383;-39
2022/09/26 00:43:29;;;;;;;17.27;13.80;;;18.10;99.90;;;;;;4590757;19;20011;-41
2022/09/26 00:45:00;;;;;;;16.55;14.38;;;18.10;99.90;;;;;;4591321;19;20029;-40
2022/09/26 00:46:35;;;;;;;14.60;12.95;;;18.10;99.90;;;;;;4590332;19;20021;-40
2022/09/26 00:48:06;;;;;;;14.68;12.85;;;18.10;99.90;;;;;;4590641;19;20471;-39
2022/09/26 00:49:40;;;;;;;15.65;12.10;;;18.10;99.90;;;;;;4589716;19;20010;-41
2022/09/26 00:51:11;;;;;;;14.60;12.40;;;18.10;99.90;;;;;;4589655;19;20499;-41
2022/09/26 00:52:55;;;;;;;13.50;12.10;;;18.10;99.90;;;;;;4590621;19;20460;-42
2022/09/26 00:54:27;;;;;;;14.32;12.65;;;18.10;99.90;;;;;;4589812;19;20011;-37
2022/09/26 00:56:01;;;;;;;14.10;12.05;;;18.00;99.90;;;;;;4589290;19;20018;-41
2022/09/26 00:57:38;;;;;;;14.02;11.98;;;18.10;99.90;;;;;;4590626;19;20010;-43
2022/09/26 00:59:18;;;;;;;13.77;11.75;;;18.10;99.90;;;;;;4589805;19;20010;-42
2022/09/26 01:00:49;;;;;;;13.93;12.05;;;18.10;99.90;;;;;;4589547;19;20014;-41
2022/09/26 01:02:22;;;;;;;16.80;11.90;;;18.10;99.90;;;;;;4589462;19;20018;-40
2022/09/26 01:03:53;;;;;;;14.38;11.43;;;18.10;99.90;;;;;;4588023;19;20499;-41
2022/09/26 01:05:24;;;;;;;12.35;10.48;;;18.10;99.90;;;;;;4588344;19;20011;-37
2022/09/26 01:06:56;;;;;;;13.07;11.50;;;18.10;99.90;;;;;;4588945;19;20084;-39
2022/09/26 01:08:33;;;;;;;14.20;12.73;;;18.00;99.90;;;;;;4588364;19;20010;-39
2022/09/26 01:10:05;;;;;;;14.10;11.70;;;18.00;99.90;;;;;;4588132;19;20018;-41
2022/09/26 01:11:38;;;;;;;12.18;10.80;;;18.10;99.90;;;;;;4588681;19;20488;-42
2022/09/26 01:13:09;;;;;;;12.98;11.60;;;18.10;99.90;;;;;;4587761;19;20530;-41
2022/09/26 01:14:40;;;;;;;12.88;11.45;;;18.10;99.90;;;;;;4588269;19;20015;-41
2022/09/26 01:16:11;;;;;;;13.07;11.35;;;18.10;99.90;;;;;;4587402;19;20488;-40
2022/09/26 01:17:43;;;;;;;11.45;10.20;;;18.10;99.90;;;;;;4588981;19;20007;-39
2022/09/26 01:19:44;;;;;;;12.45;10.98;;;18.10;99.90;;;;;;4587917;19;20488;-39
2022/09/26 01:21:40;;;;;;;12.77;11.40;;;18.10;99.90;;;;;;4587942;19;20106;-38
2022/09/26 01:23:36;;;;;;;13.80;11.48;;;18.10;99.90;;;;;;4587918;19;20014;-38
2022/09/26 01:25:18;;;;;;;13.85;11.63;;;18.10;99.90;;;;;;4587851;19;20021;-40
2022/09/26 01:27:23;;;;;;;12.43;11.02;;;18.10;99.90;;;;;;4587707;19;20477;-40
2022/09/26 01:29:00;;;;;;;14.40;11.77;;;18.00;99.90;;;;;;4587970;19;20023;-41
2022/09/26 01:30:46;;;;;;;13.55;11.98;;;18.00;99.90;;;;;;4588002;19;20010;-42
2022/09/26 01:33:03;;;;;;;18.35;16.55;;;18.10;99.90;;;;;;4588092;19;20018;-42
2022/09/26 01:34:58;;;;;;;19.60;17.52;;;18.00;99.90;;;;;;4588337;19;20009;-38
2022/09/26 01:36:41;;;;;;;16.38;14.77;;;18.00;99.90;;;;;;4586861;19;20010;-38
2022/09/26 01:38:24;;;;;;;16.20;14.50;;;18.00;99.90;;;;;;4588296;19;20014;-40
2022/09/26 01:40:27;;;;;;;14.95;12.70;;;18.00;99.90;;;;;;4586981;19;20025;-38
2022/09/26 01:42:13;;;;;;;14.45;12.95;;;18.10;99.90;;;;;;4587543;19;20393;-37
2022/09/26 01:43:55;;;;;;;13.65;12.23;;;18.10;99.90;;;;;;4588128;19;20015;-40
2022/09/26 01:45:27;;;;;;;;;;;18.00;99.90;;;;;;4589031;19;20018;-38
2022/09/26 01:47:26;;;;;;;14.18;12.57;;;18.00;99.90;;;;;;4588005;19;19922;-41
2022/09/26 01:49:07;;;;;;;13.98;12.20;;;18.10;99.90;;;;;;4587975;19;20039;-41
2022/09/26 01:50:58;;;;;;;12.57;11.27;;;18.00;99.90;;;;;;4588314;19;20009;-39
2022/09/26 01:52:49;;;;;;;12.95;11.65;;;18.10;99.90;;;;;;4587198;19;20524;-38
2022/09/26 01:54:24;;;;;;;12.60;11.30;;;18.00;99.90;;;;;;4587831;19;20021;-43
2022/09/26 01:56:07;;;;;;;12.80;11.50;;;18.00;99.90;;;;;;4591486;19;20041;-37
2022/09/26 01:58:02;;;;;;;12.52;11.13;;;18.00;99.90;;;;;;4592004;19;20017;-42
2022/09/26 01:59:39;;;;;;;12.57;11.38;;;18.10;99.90;;;;;;4591986;19;20469;-42
2022/09/26 02:01:11;;;;;;;12.05;10.82;;;18.00;99.90;;;;;;4592091;19;20428;-38
2022/09/26 02:02:47;;;;;;;12.77;10.65;;;18.00;99.90;;;;;;4592046;19;20367;-40
2022/09/26 02:04:24;;;;;;;12.75;11.25;;;18.00;99.90;;;;;;4591860;19;20014;-40
2022/09/26 02:06:02;;;;;;;11.57;10.30;;;18.10;99.90;;;;;;4591932;19;20043;-41
2022/09/26 02:07:39;;;;;;;12.57;11.27;;;18.10;99.90;;;;;;4591983;19;20018;-39
2022/09/26 02:09:15;;;;;;;12.27;11.10;;;18.10;99.90;;;;;;4591812;19;20368;-39
2022/09/26 02:10:51;;;;;;;12.98;11.07;;;18.10;99.90;;;;;;4592039;19;20374;-43
2022/09/26 02:12:26;;;;;;;14.35;11.43;;;18.10;99.90;;;;;;4591730;19;20078;-43
2022/09/26 02:14:08;;;;;;;12.60;11.32;;;18.10;99.90;;;;;;4592021;19;20014;-39
2022/09/26 02:15:39;;;;;;;;;;;18.10;99.90;;;;;;4592536;19;20082;-40
2022/09/26 02:17:12;;;;;;;12.77;11.15;;;18.10;99.90;;;;;;4591634;19;19923;-40
2022/09/26 02:18:47;;;;;;;12.90;11.60;;;18.10;99.90;;;;;;4591740;19;20512;-41
2022/09/26 02:20:26;;;;;;;14.48;12.98;;;18.10;99.90;;;;;;4592175;19;20011;-41
2022/09/26 02:21:59;;;;;;;13.15;11.75;;;18.00;99.90;;;;;;4592566;19;20003;-41
2022/09/26 02:23:31;;;;;;;14.02;12.63;;;18.00;99.90;;;;;;4591631;19;20029;-42
2022/09/26 02:25:02;;;;;;;13.60;12.18;;;18.10;99.90;;;;;;4591895;19;20014;-42
2022/09/26 02:26:33;;;;;;;13.70;12.10;;;18.10;99.90;;;;;;4592029;19;20070;-42
2022/09/26 02:28:04;;;;;;;14.52;13.02;;;18.10;99.90;;;;;;4591817;19;20010;-40
2022/09/26 02:29:35;;;;;;;16.48;14.85;;;18.10;99.90;;;;;;4591864;19;20015;-40
2022/09/26 02:31:07;;;;;;;14.25;12.60;;;18.10;99.90;;;;;;4593347;19;20014;-40
2022/09/26 02:32:39;;;;;;;13.40;11.80;;;18.10;99.90;;;;;;4592715;19;20074;-43
2022/09/26 02:34:10;;;;;;;13.35;11.95;;;18.10;99.90;;;;;;4593204;19;20015;-40
2022/09/26 02:35:54;;;;;;;13.93;12.38;;;18.00;99.90;;;;;;4593129;19;20078;-38
2022/09/26 02:37:31;;;;;;;14.20;12.43;;;18.10;99.90;;;;;;4592398;19;20574;-42
2022/09/26 02:39:02;;;;;;;13.52;12.13;;;18.00;99.90;;;;;;4593210;19;20021;-42
2022/09/26 02:40:49;;;;;;;14.73;13.15;;;18.00;99.90;;;;;;4592178;19;20485;-43
2022/09/26 02:42:35;;;;;;;13.73;12.20;;;18.10;99.90;;;;;;4593465;19;20027;-39
2022/09/26 02:44:20;;;;;;;14.38;12.70;;;18.00;99.90;;;;;;4593326;19;20334;-41
2022/09/26 02:46:13;;;;;;;13.75;12.35;;;18.10;99.90;;;;;;4592378;19;20011;-40
2022/09/26 02:47:48;;;;;;;14.05;11.55;;;18.10;99.90;;;;;;4593600;19;20007;-38
2022/09/26 02:49:38;;;;;;;13.13;11.80;;;18.00;99.90;;;;;;4593093;19;19994;-42
2022/09/26 02:51:20;;;;;;;12.65;11.35;;;18.10;99.90;;;;;;4593058;19;20376;-42
2022/09/26 02:53:06;;;;;;;16.88;12.35;;;18.10;99.90;;;;;;4592102;19;20478;-41
2022/09/26 02:54:57;;;;;;;12.55;11.25;;;18.10;99.90;;;;;;4593331;19;20029;-42
2022/09/26 02:56:54;;;;;;;13.23;11.85;;;18.10;99.90;;;;;;4590929;19;20007;-39
2022/09/26 02:58:53;;;;;;;14.75;12.50;;;18.10;99.90;;;;;;4593284;19;20023;-40
2022/09/26 03:00:27;;;;;;;13.98;12.43;;;18.10;99.90;;;;;;4593520;19;20024;-42
2022/09/26 03:02:14;;;;;;;14.20;12.57;;;18.10;99.90;;;;;;4592346;19;20047;-43
2022/09/26 03:03:52;;;;;;;15.13;12.23;;;18.10;99.90;;;;;;4592744;19;20360;-42
2022/09/26 03:05:25;;;;;;;13.77;12.38;;;18.10;99.90;;;;;;4591634;19;20027;-43
2022/09/26 03:06:59;;;;;;;14.75;13.05;;;18.10;99.90;;;;;;4589368;19;20022;-43
2022/09/26 03:08:32;;;;;;;15.50;13.32;;;18.10;99.90;;;;;;4592165;19;20493;-40
2022/09/26 03:10:04;;;;;;;14.05;12.43;;;18.10;99.90;;;;;;4593011;19;20017;-41
2022/09/26 03:11:35;;;;;;;14.88;12.90;;;18.10;99.90;;;;;;4591688;19;20030;-37
2022/09/26 03:13:10;;;;;;;;;;;18.10;99.90;;;;;;4592991;19;20011;-40
2022/09/26 03:14:41;;;;;;;14.35;12.27;;;18.10;99.90;;;;;;4591772;19;20285;-41
2022/09/26 03:16:13;;;;;;;16.65;14.07;;;18.10;99.90;;;;;;4592276;19;20022;-38
2022/09/26 03:17:46;;;;;;;16.58;14.60;;;18.10;99.90;;;;;;4591756;19;20356;-40
2022/09/26 03:19:40;;;;;;;16.50;13.45;;;18.10;99.90;;;;;;4591863;19;20014;-37
2022/09/26 03:21:13;;;;;;;15.43;13.85;;;18.10;99.90;;;;;;4590487;19;20010;-41
2022/09/26 03:22:44;;;;;;;14.65;13.13;;;18.10;99.90;;;;;;4590548;19;20102;-41
2022/09/26 03:24:16;;;;;;;15.25;13.65;;;18.10;99.90;;;;;;4590613;19;20024;-40
2022/09/26 03:25:55;;;;;;;;;;;18.10;99.90;;;;;;4591296;19;20018;-42
2022/09/26 03:27:26;;;;;;;15.30;13.68;;;18.10;99.90;;;;;;4590319;19;19934;-40
2022/09/26 03:28:57;;;;;;;17.30;14.48;;;18.10;99.90;;;;;;4591140;19;20066;-40
2022/09/26 03:30:29;;;;;;;15.77;14.18;;;18.10;99.90;;;;;;4590163;19;20468;-40
2022/09/26 03:32:00;;;;;;;;;;;18.10;99.90;;;;;;4591454;19;20010;-38
2022/09/26 03:33:31;;;;;;;15.20;13.60;;;18.10;99.90;;;;;;4590376;19;19923;-38
2022/09/26 03:35:03;;;;;;;16.88;15.15;;;18.10;99.90;;;;;;4590995;19;20018;-41
2022/09/26 03:36:34;;;;;;;;;;;18.10;99.90;;;;;;4589796;19;20019;-43
2022/09/26 03:38:05;;;;;;;17.70;15.00;;;18.10;99.90;;;;;;4590455;19;19915;-37
2022/09/26 03:39:36;;;;;;;16.00;14.18;;;18.10;99.90;;;;;;4589271;19;20023;-41
2022/09/26 03:41:08;;;;;;;16.33;14.32;;;18.10;99.90;;;;;;4590169;19;20006;-40
2022/09/26 03:42:39;;;;;;;15.43;13.82;;;18.10;99.90;;;;;;4590057;19;20041;-42
2022/09/26 03:44:11;;;;;;;17.05;15.10;;;18.10;99.90;;;;;;4590046;19;20018;-43
2022/09/26 03:45:42;;;;;;;19.13;15.43;;;18.10;99.90;;;;;;4589889;19;20412;-42
2022/09/26 03:47:14;;;;;;;17.15;15.40;;;18.10;99.90;;;;;;4590174;19;20038;-37
2022/09/26 03:48:45;;;;;;;18.65;15.48;;;18.10;99.90;;;;;;4590020;19;20021;-40
2022/09/26 03:50:16;;;;;;;16.10;14.50;;;18.10;99.90;;;;;;4590004;19;20010;-37
2022/09/26 03:51:47;;;;;;;15.82;14.18;;;18.10;99.90;;;;;;4589988;19;20594;-41
2022/09/26 03:53:18;;;;;;;17.55;15.15;;;18.20;99.90;;;;;;4589743;19;20034;-40
2022/09/26 03:54:49;;;;;;;16.90;14.57;;;18.30;99.90;;;;;;4589765;19;20480;-40
2022/09/26 03:56:21;;;;;;;17.65;15.75;;;18.30;99.90;;;;;;4588864;19;20468;-41
2022/09/26 03:57:52;;;;;;;19.90;15.95;;;18.40;99.90;;;;;;4590496;19;20029;-37
2022/09/26 03:59:23;;;;;;;19.05;16.67;;;18.40;99.90;;;;;;4591739;19;20036;-38
2022/09/26 04:00:55;;;;;;;17.80;15.90;;;18.40;99.90;;;;;;4592463;19;20014;-41
2022/09/26 04:02:26;;;;;;;17.33;15.45;;;18.40;99.90;;;;;;4590884;19;20097;-38
2022/09/26 04:03:57;;;;;;;18.45;15.80;;;18.50;99.90;;;;;;4592053;19;20070;-40
2022/09/26 04:05:29;;;;;;;17.17;15.43;;;18.50;99.90;;;;;;4590394;19;20499;-42
2022/09/26 04:07:00;;;;;;;19.23;15.85;;;18.50;99.90;;;;;;4591802;19;20011;-40
2022/09/26 04:08:31;;;;;;;18.20;16.17;;;18.50;99.90;;;;;;4592332;19;20022;-42
2022/09/26 04:10:02;;;;;;;17.40;15.02;;;18.50;99.90;;;;;;4589699;19;20036;-38
2022/09/26 04:11:34;;;;;;;16.85;15.05;;;18.50;99.90;;;;;;4590973;19;20011;-40
2022/09/26 04:13:05;;;;;;;21.92;19.35;;;18.50;99.90;;;;;;4591548;19;20017;-39
2022/09/26 04:14:36;;;;;;;24.08;21.50;;;17.00;99.90;;;;;;4591610;19;20070;-36
2022/09/26 04:16:08;;;;;;;23.13;20.73;;;15.70;99.90;;;;;;4588760;19;20017;-35
2022/09/26 04:17:39;;;;;;;25.73;23.10;;;15.10;99.90;;;;;;4588501;19;20014;-40
2022/09/26 04:19:13;;;;;;;25.90;22.23;;;14.80;99.90;;;;;;4590559;19;20464;-34
2022/09/26 04:20:44;;;;;;;25.30;22.60;;;14.60;99.90;;;;;;4591502;19;20018;-35
2022/09/26 04:22:15;;;;;;;24.30;21.85;;;14.50;99.90;;;;;;4591386;19;20464;-38
2022/09/26 04:23:46;;;;;;;24.80;22.15;;;14.40;99.90;;;;;;4591079;19;20014;-39
2022/09/26 04:25:17;;;;;;;23.95;21.35;;;14.40;99.90;;;;;;4591270;19;20015;-36
2022/09/26 04:26:49;;;;;;;27.25;23.63;;;14.40;99.90;;;;;;4591961;19;20014;-39
2022/09/26 04:28:20;;;;;;;25.52;22.83;;;14.40;99.90;;;;;;4591185;19;20084;-38
2022/09/26 04:29:51;;;;;;;24.90;22.30;;;14.30;99.90;;;;;;4591266;19;20025;-35
2022/09/26 04:31:23;;;;;;;24.50;21.90;;;14.30;99.90;;;;;;4589388;19;20014;-40
2022/09/26 04:32:54;;;;;;;25.50;22.80;;;14.30;99.90;;;;;;4590883;19;20010;-40
2022/09/26 04:34:25;;;;;;;23.90;21.40;;;14.30;99.90;;;;;;4591138;19;20014;-40
2022/09/26 04:35:59;;;;;;;25.60;22.80;;;14.20;99.90;;;;;;4588970;19;20019;-39
2022/09/26 04:37:30;;;;;;;24.87;22.37;;;14.20;99.90;;;;;;4589715;19;20030;-37
2022/09/26 04:39:02;;;;;;;25.55;22.42;;;14.20;99.90;;;;;;4590808;19;20014;-42
2022/09/26 04:40:36;;;;;;;24.83;22.23;;;14.20;99.90;;;;;;4588924;19;20018;-40
2022/09/26 04:42:07;;;;;;;27.50;24.25;;;14.20;99.90;;;;;;4590667;19;20356;-38
2022/09/26 04:43:38;;;;;;;26.88;23.90;;;14.20;99.90;;;;;;4592039;19;20039;-39
2022/09/26 04:45:09;;;;;;;28.52;24.23;;;14.10;99.90;;;;;;4590105;19;20506;-39
2022/09/26 04:46:41;;;;;;;25.70;23.10;;;14.10;99.90;;;;;;4589487;19;20500;-37
2022/09/26 04:48:12;;;;;;;25.92;23.17;;;14.10;99.90;;;;;;4590361;19;20015;-41
2022/09/26 04:49:43;;;;;;;26.08;22.75;;;14.10;99.90;;;;;;4589823;19;20345;-38
2022/09/26 04:51:15;;;;;;;26.48;22.55;;;14.10;99.90;;;;;;4591299;19;20090;-38
2022/09/26 04:52:46;;;;;;;24.23;21.60;;;14.00;99.90;;;;;;4590327;19;20014;-38
2022/09/26 04:54:17;;;;;;;25.00;22.30;;;14.00;99.90;;;;;;4591401;19;20377;-37
2022/09/26 04:55:53;;;;;;;25.93;23.20;;;14.10;99.90;;;;;;4588659;19;20007;-38
2022/09/26 04:57:24;;;;;;;25.23;22.63;;;14.00;99.90;;;;;;4589339;19;20018;-36
2022/09/26 04:58:56;;;;;;;27.73;24.80;;;14.00;99.90;;;;;;4591209;19;20010;-38
2022/09/26 05:00:27;;;;;;;26.83;23.93;;;14.00;99.90;;;;;;4590821;19;20023;-40
2022/09/26 05:01:58;;;;;;;26.58;23.80;;;14.00;99.90;;;;;;4590043;19;20340;-37
2022/09/26 05:03:30;;;;;;;25.98;22.73;;;14.00;99.90;;;;;;4587429;19;20033;-35
2022/09/26 05:05:01;;;;;;;26.30;23.63;;;14.00;99.90;;;;;;4589746;19;20022;-39
2022/09/26 05:06:32;;;;;;;30.08;24.33;;;14.00;99.90;;;;;;4590216;19;20023;-38
2022/09/26 05:08:04;;;;;;;26.42;23.67;;;14.00;99.90;;;;;;4589298;19;20025;-39
2022/09/26 05:09:36;;;;;;;26.77;23.93;;;14.00;99.90;;;;;;4590902;19;20011;-38
2022/09/26 05:11:08;;;;;;;26.77;23.95;;;14.00;99.90;;;;;;4590107;19;20359;-38
2022/09/26 05:12:39;;;;;;;26.08;23.38;;;14.00;99.90;;;;;;4591350;19;20007;-40
2022/09/26 05:14:10;;;;;;;25.02;22.25;;;14.00;99.90;;;;;;4589132;19;20084;-42
2022/09/26 05:15:41;;;;;;;27.67;24.73;;;14.00;99.90;;;;;;4589980;19;20114;-38
2022/09/26 05:17:14;;;;;;;29.38;25.05;;;14.00;99.90;;;;;;4590455;19;20022;-42
2022/09/26 05:18:51;;;;;;;27.47;24.27;;;14.00;99.90;;;;;;4589032;19;20436;-38
2022/09/26 05:20:23;;;;;;;27.30;24.43;;;14.00;99.90;;;;;;4591361;19;20094;-39
2022/09/26 05:21:54;;;;;;;;;;;14.00;99.90;;;;;;4591085;19;20029;-40
2022/09/26 05:27:05;;;;;;;29.63;25.17;;;14.00;99.90;;;;;;4590104;19;20026;-37
2022/09/26 05:28:36;;;;;;;27.92;24.58;;;14.00;99.90;;;;;;4588973;19;20052;-37
2022/09/26 05:30:08;;;;;;;30.60;25.00;;;14.00;99.90;;;;;;4585354;19;20033;-38
2022/09/26 05:31:39;;;;;;;29.67;26.48;;;14.00;99.90;;;;;;4589339;19;20349;-39
2022/09/26 05:33:12;;;;;;;30.75;27.05;;;14.00;99.90;;;;;;4589327;19;20401;-41
2022/09/26 05:34:43;;;;;;;30.67;27.37;;;14.00;99.90;;;;;;4588739;19;20006;-41
2022/09/26 05:36:15;;;;;;;30.83;27.13;;;14.00;99.90;;;;;;4589925;19;20013;-39
2022/09/26 05:37:47;;;;;;;28.73;25.70;;;14.10;99.90;;;;;;4589530;19;20039;-36
2022/09/26 05:41:08;;;;;;;30.93;26.87;;;14.10;99.90;;;;;;4587983;19;20037;-35
2022/09/26 05:42:39;;;;;;;29.85;26.50;;;14.10;99.90;;;;;;4588944;19;20013;-39
2022/09/26 05:44:10;;;;;;;30.70;27.40;;;14.10;99.90;;;;;;4590419;19;20047;-38
2022/09/26 05:45:43;;;;;;;31.08;27.77;;;14.10;99.90;;;;;;4589623;19;20022;-39
2022/09/26 05:47:15;;;;;;;30.53;27.40;;;14.10;99.90;;;;;;4590259;19;20467;-38
2022/09/26 05:48:46;;;;;;;29.57;25.53;;;14.10;99.90;;;;;;4587779;19;20019;-36
2022/09/26 05:50:21;;;;;;;26.98;24.17;;;14.20;99.90;;;;;;4590045;19;20367;-39
2022/09/26 05:51:52;;;;;;;27.40;23.67;;;14.40;99.90;;;;;;4589009;19;20010;-39
2022/09/26 05:53:24;;;;;;;28.00;22.73;;;14.80;99.90;;;;;;4588516;19;20018;-41
2022/09/26 05:54:55;;;;;;;24.10;21.50;;;15.20;99.90;;;;;;4588829;19;20389;-40
2022/09/26 05:56:26;;;;;;;24.13;21.05;;;15.60;99.90;;;;;;4587505;19;20018;-39
2022/09/26 05:57:57;;;;;;;24.30;21.30;;;15.80;99.90;;;;;;4590150;19;20014;-38
2022/09/26 05:59:29;;;;;;;25.85;21.35;;;16.00;99.90;;;;;;4589711;19;20018;-42
2022/09/26 06:01:02;;;;;;;22.88;20.45;;;16.10;99.90;;;;;;4590628;19;20038;-39
2022/09/26 06:02:33;;;;;;;22.42;19.90;;;16.20;99.90;;;;;;4588856;19;20111;-36
2022/09/26 06:04:05;;;;;;;22.58;19.95;;;16.40;99.90;;;;;;4589252;19;20386;-39
2022/09/26 06:05:36;;;;;;;22.83;19.27;;;16.50;99.90;;;;;;4589848;19;21220;-40
2022/09/26 06:07:08;;;;;;;22.10;19.77;;;16.50;99.90;;;;;;4588786;19;20610;-39
2022/09/26 06:08:39;;;;;;;22.95;19.48;;;16.60;99.90;;;;;;4589975;19;20011;-43
2022/09/26 06:10:10;;;;;;;20.77;18.58;;;16.70;99.90;;;;;;4588965;19;20029;-40
2022/09/26 06:11:41;;;;;;;20.98;18.55;;;16.80;99.90;;;;;;4588433;19;20464;-39
2022/09/26 06:13:14;;;;;;;23.50;20.17;;;16.80;99.90;;;;;;4589007;19;20011;-42
2022/09/26 06:14:45;;;;;;;23.42;19.30;;;16.90;99.90;;;;;;4589984;19;20023;-42
2022/09/26 06:16:18;;;;;;;23.85;19.65;;;16.90;99.90;;;;;;4588999;19;20011;-40
2022/09/26 06:17:57;;;;;;;20.02;17.83;;;17.00;99.90;;;;;;4589208;19;20033;-43
2022/09/26 06:19:28;;;;;;;21.70;18.77;;;17.10;99.90;;;;;;4589997;19;20350;-43
2022/09/26 06:21:06;;;;;;;21.63;19.00;;;17.10;99.90;;;;;;4588421;19;20014;-38
2022/09/26 06:22:39;;;;;;;20.27;18.17;;;17.20;99.90;;;;;;4589206;19;20046;-40
2022/09/26 06:24:11;;;;;;;20.83;17.50;;;17.20;99.90;;;;;;4588322;19;20018;-41
2022/09/26 06:25:42;;;;;;;20.33;17.98;;;17.30;99.90;;;;;;4590909;19;20007;-40
2022/09/26 06:27:13;;;;;;;20.65;18.20;;;17.30;99.90;;;;;;4587893;19;20015;-42
2022/09/26 06:28:45;;;;;;;19.25;17.25;;;17.40;99.90;;;;;;4588716;19;20018;-40
2022/09/26 06:30:16;;;;;;;;;;;17.40;99.90;;;;;;4589084;19;20460;-37
2022/09/26 06:31:48;;;;;;;20.17;18.08;;;17.40;99.90;;;;;;4589051;19;20254;-41
2022/09/26 06:33:20;;;;;;;19.13;17.10;;;17.50;99.90;;;;;;4589034;19;20086;-42
2022/09/26 06:34:52;;;;;;;20.67;17.25;;;17.50;99.90;;;;;;4588778;19;20349;-38
2022/09/26 06:36:23;;;;;;;18.63;16.65;;;17.50;99.90;;;;;;4589190;19;20448;-42
2022/09/26 06:37:55;;;;;;;20.00;16.38;;;17.60;99.90;;;;;;4588732;19;20342;-41
2022/09/26 06:39:34;;;;;;;;;;;17.70;99.90;;;;;;4589378;19;20357;-37
2022/09/26 06:41:06;;;;;;;25.02;22.52;;;17.80;99.90;;;;;;4591148;19;19923;-40
2022/09/26 06:42:37;;;;;;;;;;;16.70;99.90;;;;;;4595031;19;20017;-41
2022/09/26 06:44:09;;;;;;;26.45;23.73;;;15.80;99.90;;;;;;4591153;19;19922;-42
2022/09/26 06:45:40;;;;;;;26.38;23.60;;;15.40;99.90;;;;;;4593009;19;20018;-37
2022/09/26 06:47:12;;;;;;;26.77;24.05;;;15.20;99.90;;;;;;4593049;19;20373;-39
2022/09/26 06:48:43;;;;;;;26.63;23.85;;;15.20;99.90;;;;;;4594416;19;20007;-35
2022/09/26 06:50:14;;;;;;;27.98;25.02;;;15.20;99.90;;;;;;4593486;19;20011;-38
2022/09/26 06:51:47;;;;;;;26.73;23.93;;;15.10;99.90;;;;;;4593538;19;20033;-40
2022/09/26 06:53:19;;;;;;;26.70;22.93;;;15.10;99.90;;;;;;4592241;19;20011;-40
2022/09/26 06:54:50;;;;;;;28.80;25.75;;;15.10;99.90;;;;;;4593301;19;20013;-42
2022/09/26 06:56:21;;;;;;;27.63;24.83;;;15.10;99.90;;;;;;4592029;19;20341;-41
2022/09/26 06:57:52;;;;;;;27.17;24.38;;;15.10;99.90;;;;;;4593213;19;20492;-40
2022/09/26 06:59:24;;;;;;;28.52;25.42;;;15.20;99.90;;;;;;4593484;19;20022;-40
2022/09/26 07:00:57;;;;;;;;;;;15.10;99.90;;;;;;4593800;19;20017;-42
2022/09/26 07:02:28;;;;;;;27.30;24.47;;;15.10;99.90;;;;;;4592744;19;20332;-40
2022/09/26 07:04:00;;;;;;;28.05;25.25;;;15.10;99.90;;;;;;4592653;19;20018;-41
2022/09/26 07:05:31;;;;;;;27.63;24.83;;;15.10;99.90;;;;;;4593667;19;20022;-39
2022/09/26 07:07:02;;;;;;;26.90;24.00;;;15.20;99.90;;;;;;4592646;19;20023;-41
2022/09/26 07:08:33;;;;;;;28.38;25.45;;;15.20;99.90;;;;;;4591861;19;20007;-40
2022/09/26 07:10:05;;;;;;;27.90;25.00;;;15.20;99.90;;;;;;4592738;19;20463;-36
2022/09/26 07:11:36;;;;;;;28.60;25.75;;;15.20;99.90;;;;;;4593533;19;20014;-42
2022/09/26 07:13:09;;;;;;;26.70;23.92;;;15.20;99.90;;;;;;4592518;19;20043;-39
2022/09/26 07:14:41;;;;;;;27.73;24.85;;;15.20;99.90;;;;;;4591357;19;20476;-38
2022/09/26 07:16:12;;;;;;;;;;;15.20;99.90;;;;;;4592775;19;20011;-40
2022/09/26 07:17:43;;;;;;;26.90;24.03;;;15.20;99.90;;;;;;4593436;19;19923;-37
2022/09/26 07:19:15;;;;;;;27.20;24.37;;;15.20;99.90;;;;;;4592910;19;20014;-43
2022/09/26 07:20:47;;;;;;;27.38;24.27;;;15.20;99.90;;;;;;4593126;19;20010;-41
2022/09/26 07:22:18;;;;;;;;;;;15.30;99.90;;;;;;4594278;19;20011;-39
2022/09/26 07:23:49;;;;;;;27.67;24.73;;;15.30;99.90;;;;;;4592358;19;19953;-41
2022/09/26 07:25:20;;;;;;;29.63;26.45;;;15.30;99.90;;;;;;4592471;19;20019;-39
2022/09/26 07:26:51;;;;;;;27.58;24.75;;;15.30;99.90;;;;;;4592634;19;20015;-38
2022/09/26 07:28:23;;;;;;;27.45;23.67;;;15.30;99.90;;;;;;4593053;19;20031;-39
2022/09/26 07:29:55;;;;;;;28.42;24.98;;;15.30;99.90;;;;;;4591463;19;20472;-42
2022/09/26 07:31:26;;;;;;;28.10;25.10;;;15.30;99.90;;;;;;4591900;19;20062;-43
2022/09/26 07:33:02;;;;;;;28.08;25.30;;;15.30;99.90;;;;;;4594393;19;20014;-41
2022/09/26 07:34:33;;;;;;;28.00;25.07;;;15.30;99.90;;;;;;4592793;19;20007;-42
2022/09/26 07:36:05;;;;;;;28.65;25.45;;;15.30;99.90;;;;;;4591442;19;20015;-38
2022/09/26 07:37:36;;;;;;;;;;;15.30;99.90;;;;;;4591612;19;20475;-39
2022/09/26 07:39:07;;;;;;;30.58;27.45;;;15.30;99.90;;;;;;4592155;19;19918;-38
2022/09/26 07:40:39;;;;;;;28.10;25.30;;;15.30;99.90;;;;;;4590900;19;20023;-43
2022/09/26 07:42:10;;;;;;;28.58;25.67;;;15.30;99.90;;;;;;4592023;19;20010;-38
2022/09/26 07:43:42;;;;;;;29.30;26.20;;;15.40;99.90;;;;;;4592377;19;20041;-37
2022/09/26 07:45:13;;;;;;;29.42;26.38;;;15.40;99.90;;;;;;4592259;19;20365;-39
2022/09/26 07:50:23;;;;;;;29.92;26.88;;;15.40;99.90;;;;;;4591983;19;20011;-36
2022/09/26 07:51:55;;;;;;;30.05;27.08;;;15.40;99.90;;;;;;4591457;19;20477;-42
2022/09/26 07:53:26;;;;;;;27.17;24.40;;;15.50;99.90;;;;;;4590357;19;20029;-40
2022/09/26 07:54:57;;;;;;;30.17;26.98;;;15.50;99.90;;;;;;4590226;19;20015;-36
2022/09/26 07:56:33;;;;;;;29.98;26.85;;;15.50;99.90;;;;;;4590165;19;20492;-38
2022/09/26 07:58:05;;;;;;;29.13;26.17;;;15.50;99.90;;;;;;4591444;19;20019;-36
2022/09/26 07:59:36;;;;;;;27.08;24.27;;;15.60;99.90;;;;;;4592617;19;20014;-38
2022/09/26 08:01:10;;;;;;;26.05;23.42;;;15.60;99.90;;;;;;4591383;19;20479;-37
2022/09/26 08:02:43;;;;;;;26.92;24.13;;;15.60;99.90;;;;;;4590307;19;20028;-35
2022/09/26 08:04:14;;;;;;;26.13;23.50;;;15.60;99.90;;;;;;4590976;19;20013;-36
2022/09/26 08:05:45;;;;;;;26.10;23.30;;;15.70;99.90;;;;;;4591759;19;20089;-39
2022/09/26 08:07:17;;;;;;;26.75;24.05;;;15.80;99.90;;;;;;4591382;19;20041;-39
2022/09/26 08:08:52;;;;;;;23.48;21.10;;;15.80;99.90;;;;;;4591920;19;20010;-36